Time;durP1;ratioP1;P1;durP2;ratioP2;P2;SDS_P1;SDS_P2;PMS_P1;PMS_P2;Temp;Humidity;BMP_temperature;BMP_pressure;BME280_temperature;BME280_humidity;BME280_pressure;Samples;Min_cycle;Max_cycle;Signal;HPM_P1;HPM_P2
2021/06/06 00:01:27;;;;;;;137.68;45.35;;;14.10;99.90;;;;;;6165526;23;20009;-81
2021/06/06 00:03:56;;;;;;;153.18;48.05;;;14.20;99.90;;;;;;6160193;23;20032;-81
2021/06/06 00:06:23;;;;;;;153.15;44.97;;;14.20;99.90;;;;;;6163041;23;20088;-81
2021/06/06 00:08:50;;;;;;;137.27;46.40;;;14.20;99.90;;;;;;6186969;23;20195;-80
2021/06/06 00:11:19;;;;;;;141.35;46.17;;;14.20;99.90;;;;;;6166351;23;20017;-80
2021/06/06 00:13:46;;;;;;;123.45;44.40;;;14.20;99.90;;;;;;6156505;23;20172;-80
2021/06/06 00:16:17;;;;;;;119.60;44.72;;;14.20;99.90;;;;;;6167001;23;20390;-80
2021/06/06 00:18:43;;;;;;;125.97;44.17;;;14.20;99.90;;;;;;6155274;23;20056;-80
2021/06/06 00:21:10;;;;;;;124.78;45.40;;;14.30;99.90;;;;;;6189711;23;20087;-80
2021/06/06 00:23:35;;;;;;;119.50;45.63;;;14.20;99.90;;;;;;6180715;23;20020;-80
2021/06/06 00:26:06;;;;;;;148.75;47.33;;;14.30;99.90;;;;;;6194056;23;20043;-80
2021/06/06 00:28:32;;;;;;;126.65;44.95;;;14.30;99.90;;;;;;6130591;23;20644;-80
2021/06/06 00:30:59;;;;;;;114.53;44.13;;;14.30;99.90;;;;;;6155846;23;20017;-80
2021/06/06 00:33:26;;;;;;;123.07;45.38;;;14.30;99.90;;;;;;6193510;23;20086;-80
2021/06/06 00:35:52;;;;;;;112.55;45.10;;;14.30;99.90;;;;;;6184224;23;20462;-80
2021/06/06 00:38:17;;;;;;;103.75;43.70;;;14.30;99.90;;;;;;6181761;23;20013;-80
2021/06/06 00:40:43;;;;;;;113.07;44.08;;;14.30;99.90;;;;;;6191079;23;20395;-80
2021/06/06 00:43:09;;;;;;;98.70;46.17;;;14.40;99.90;;;;;;6154543;23;20009;-80
2021/06/06 00:45:36;;;;;;;108.53;47.00;;;14.30;99.90;;;;;;6130878;23;20017;-80
2021/06/06 00:48:06;;;;;;;106.00;46.17;;;14.30;99.90;;;;;;6192402;23;20020;-80
2021/06/06 00:50:39;;;;;;;98.03;45.35;;;14.30;99.90;;;;;;6164514;23;20337;-80
2021/06/06 00:53:22;;;;;;;97.10;45.33;;;14.30;99.90;;;;;;6129183;23;20067;-80
2021/06/06 00:55:50;;;;;;;88.53;43.67;;;14.30;99.90;;;;;;6165527;23;20009;-80
2021/06/06 00:58:17;;;;;;;98.70;44.90;;;14.30;99.90;;;;;;6129543;23;20075;-80
2021/06/06 01:00:48;;;;;;;85.72;43.40;;;14.30;99.90;;;;;;6164467;23;20392;-80
2021/06/06 01:03:14;;;;;;;96.28;46.47;;;14.30;99.90;;;;;;6159491;23;20442;-80
2021/06/06 01:05:48;;;;;;;92.72;45.33;;;14.30;99.90;;;;;;6131649;23;20024;-81
2021/06/06 01:08:17;;;;;;;88.80;44.00;;;14.40;99.90;;;;;;6148408;23;20014;-80
2021/06/06 01:10:44;;;;;;;82.00;43.20;;;14.40;99.90;;;;;;6174540;23;20453;-80
2021/06/06 01:13:21;;;;;;;92.65;43.67;;;14.40;99.90;;;;;;6183484;23;20035;-80
2021/06/06 01:15:55;;;;;;;79.57;43.00;;;14.30;99.90;;;;;;6170864;23;20017;-80
2021/06/06 01:18:34;;;;;;;80.20;42.80;;;14.40;99.90;;;;;;6171104;23;20021;-80
2021/06/06 01:21:00;;;;;;;84.47;43.88;;;14.30;99.90;;;;;;6157813;23;20036;-81
2021/06/06 01:23:43;;;;;;;81.10;42.05;;;14.30;99.90;;;;;;6124133;23;20326;-81
2021/06/06 01:26:12;;;;;;;88.25;43.55;;;14.40;99.90;;;;;;6172156;23;20112;-80
2021/06/06 01:28:59;;;;;;;80.82;43.00;;;14.40;99.90;;;;;;6158329;23;20093;-80
2021/06/06 01:31:27;;;;;;;81.15;43.80;;;14.40;99.90;;;;;;6147418;23;20025;-80
2021/06/06 01:34:00;;;;;;;89.97;45.17;;;14.40;99.90;;;;;;6147241;23;20009;-80
2021/06/06 01:36:33;;;;;;;87.63;42.08;;;14.40;99.90;;;;;;6172889;23;20024;-80
2021/06/06 01:39:07;;;;;;;87.55;43.92;;;14.30;99.90;;;;;;6145318;23;20021;-80
2021/06/06 01:41:40;;;;;;;83.60;43.47;;;14.40;99.90;;;;;;6180259;23;20014;-80
2021/06/06 01:44:11;;;;;;;81.18;41.58;;;14.40;99.90;;;;;;6180039;23;20024;-81
2021/06/06 01:46:40;;;;;;;79.00;40.95;;;14.40;99.90;;;;;;6171573;23;20439;-80
2021/06/06 01:49:08;;;;;;;83.65;41.38;;;14.40;99.90;;;;;;6158494;23;20013;-81
2021/06/06 01:51:39;;;;;;;66.25;38.10;;;14.40;99.90;;;;;;6146116;23;20079;-80
2021/06/06 01:54:11;;;;;;;74.65;39.10;;;14.30;99.90;;;;;;6182803;23;20356;-80
2021/06/06 01:56:40;;;;;;;68.93;38.35;;;14.20;99.90;;;;;;6161285;23;20013;-80
2021/06/06 01:59:16;;;;;;;70.10;39.22;;;14.30;99.90;;;;;;6160082;23;20291;-80
2021/06/06 02:01:42;;;;;;;71.65;35.65;;;14.30;99.90;;;;;;6165442;23;20013;-80
2021/06/06 02:04:08;;;;;;;75.47;39.85;;;14.20;99.90;;;;;;6181355;23;20450;-80
2021/06/06 02:07:14;;;;;;;66.53;39.88;;;14.30;99.90;;;;;;6164851;23;20009;-80
2021/06/06 02:09:48;;;;;;;69.00;39.50;;;14.30;99.90;;;;;;6182341;23;20071;-81
2021/06/06 02:12:14;;;;;;;73.63;39.08;;;14.20;99.90;;;;;;6185734;23;20063;-80
2021/06/06 02:14:43;;;;;;;71.45;39.00;;;14.30;99.90;;;;;;6134906;23;20009;-80
2021/06/06 02:17:15;;;;;;;65.85;37.25;;;14.30;99.90;;;;;;6164826;23;20032;-80
2021/06/06 02:19:42;;;;;;;63.85;37.33;;;14.30;99.90;;;;;;6162070;23;20512;-80
2021/06/06 02:22:12;;;;;;;71.25;38.45;;;14.30;99.90;;;;;;6157589;23;20071;-80
2021/06/06 02:24:39;;;;;;;68.63;37.83;;;14.30;99.90;;;;;;6151649;23;20020;-80
2021/06/06 02:27:19;;;;;;;64.18;37.17;;;14.30;99.90;;;;;;6163370;23;20438;-80
2021/06/06 02:30:09;;;;;;;72.15;36.92;;;14.30;99.90;;;;;;6191011;23;20087;-80
2021/06/06 02:32:42;;;;;;;64.40;37.97;;;14.30;99.90;;;;;;6162419;23;20096;-80
2021/06/06 02:35:24;;;;;;;59.08;36.03;;;14.30;99.90;;;;;;6178545;23;20448;-80
2021/06/06 02:37:58;;;;;;;66.65;37.25;;;14.30;99.90;;;;;;6179927;23;20013;-80
2021/06/06 02:40:32;;;;;;;71.13;37.15;;;14.30;99.90;;;;;;6153804;23;20044;-80
2021/06/06 02:43:13;;;;;;;80.82;38.58;;;14.30;99.90;;;;;;6152908;23;20017;-80
2021/06/06 02:45:39;;;;;;;64.25;36.17;;;14.30;99.90;;;;;;6154121;23;20017;-80
2021/06/06 02:48:14;;;;;;;59.15;35.38;;;14.30;99.90;;;;;;6150486;23;20012;-80
2021/06/06 02:50:40;;;;;;;;;;;14.30;99.90;;;;;;6129652;23;20020;-80
2021/06/06 02:53:16;;;;;;;58.80;34.95;;;14.30;99.90;;;;;;6152585;23;20003;-80
2021/06/06 02:55:47;;;;;;;62.60;35.13;;;14.30;99.90;;;;;;6190222;23;20389;-81
2021/06/06 02:58:31;;;;;;;64.88;35.92;;;14.30;99.90;;;;;;6151597;23;20449;-80
2021/06/06 03:01:11;;;;;;;59.27;34.20;;;14.30;99.90;;;;;;6154586;23;20063;-80
2021/06/06 03:03:39;;;;;;;65.95;34.50;;;14.30;99.90;;;;;;6152821;23;20450;-80
2021/06/06 03:06:11;;;;;;;54.75;33.03;;;14.30;99.90;;;;;;6162998;23;20576;-80
2021/06/06 03:08:37;;;;;;;62.95;33.78;;;14.30;99.90;;;;;;6181967;23;20092;-80
2021/06/06 03:11:06;;;;;;;64.80;34.05;;;14.10;99.90;;;;;;6163622;23;20143;-80
2021/06/06 03:13:38;;;;;;;66.05;35.95;;;14.30;99.90;;;;;;6152469;23;20024;-80
2021/06/06 03:16:05;;;;;;;62.53;35.88;;;14.30;99.90;;;;;;6128085;23;20016;-80
2021/06/06 03:18:35;;;;;;;73.20;36.83;;;14.20;99.90;;;;;;6162686;23;20020;-80
2021/06/06 03:21:17;;;;;;;66.35;36.25;;;14.20;99.90;;;;;;6151847;23;20283;-80
2021/06/06 03:23:48;;;;;;;70.25;37.97;;;14.20;99.90;;;;;;6152727;23;20286;-80
2021/06/06 03:26:14;;;;;;;68.03;37.75;;;14.20;99.90;;;;;;6165037;23;20720;-80
2021/06/06 03:28:42;;;;;;;73.28;38.25;;;14.30;99.90;;;;;;6181541;23;20027;-80
2021/06/06 03:31:31;;;;;;;71.97;38.38;;;14.10;99.90;;;;;;6154739;23;20385;-81
2021/06/06 03:33:59;;;;;;;67.20;36.58;;;14.20;99.90;;;;;;6179557;23;20068;-79
2021/06/06 03:36:35;;;;;;;67.07;37.83;;;14.20;99.90;;;;;;6188783;23;20013;-79
2021/06/06 03:39:06;;;;;;;64.93;38.78;;;14.20;99.90;;;;;;6180144;23;20426;-80
2021/06/06 03:41:32;;;;;;;65.90;39.05;;;14.20;99.90;;;;;;6164372;23;20024;-80
2021/06/06 03:43:58;;;;;;;69.32;38.45;;;14.20;99.90;;;;;;6188678;23;20353;-80
2021/06/06 03:46:26;;;;;;;65.18;39.72;;;14.20;99.90;;;;;;6164089;23;20009;-79
2021/06/06 03:48:52;;;;;;;60.13;38.33;;;14.20;99.90;;;;;;6189841;23;20084;-79
2021/06/06 03:51:37;;;;;;;61.17;39.88;;;14.20;99.90;;;;;;6178690;23;20144;-80
2021/06/06 03:54:10;;;;;;;64.68;40.10;;;14.20;99.90;;;;;;6153723;23;20012;-81
2021/06/06 03:56:40;;;;;;;70.05;40.08;;;14.20;99.90;;;;;;6153503;23;20021;-80
2021/06/06 03:59:06;;;;;;;66.47;39.80;;;14.20;99.90;;;;;;6130356;23;20017;-80
2021/06/06 04:01:32;;;;;;;58.30;38.47;;;14.10;99.90;;;;;;6181080;23;20040;-81
2021/06/06 04:03:58;;;;;;;59.75;40.33;;;14.10;99.90;;;;;;6183624;23;20009;-79
2021/06/06 04:06:25;;;;;;;62.20;39.72;;;14.10;99.90;;;;;;6154591;23;20017;-80
2021/06/06 04:08:51;;;;;;;65.60;40.15;;;14.20;99.90;;;;;;6148926;23;20033;-80
2021/06/06 04:11:18;;;;;;;62.83;39.05;;;14.20;99.90;;;;;;6160469;23;20010;-80
2021/06/06 04:13:44;;;;;;;59.60;38.60;;;14.10;99.90;;;;;;6160790;23;20020;-79
2021/06/06 04:16:10;;;;;;;66.65;39.17;;;14.20;99.90;;;;;;6177009;23;20017;-80
2021/06/06 04:18:37;;;;;;;56.15;37.92;;;14.10;99.90;;;;;;6186088;23;20022;-81
2021/06/06 04:21:06;;;;;;;59.33;36.88;;;14.00;99.90;;;;;;6125708;23;20024;-81
2021/06/06 04:23:32;;;;;;;55.70;36.00;;;14.10;99.90;;;;;;6150035;23;20101;-79
2021/06/06 04:25:59;;;;;;;53.47;33.70;;;14.20;99.90;;;;;;6151323;23;20017;-79
2021/06/06 04:28:25;;;;;;;52.63;32.65;;;14.10;99.90;;;;;;6162507;23;20064;-79
2021/06/06 04:30:53;;;;;;;49.95;32.25;;;14.10;99.90;;;;;;6160963;23;20027;-79
2021/06/06 04:33:19;;;;;;;54.08;33.75;;;14.00;99.90;;;;;;6150401;23;20327;-78
2021/06/06 04:35:45;;;;;;;46.60;32.25;;;14.00;99.90;;;;;;6185600;23;20025;-79
2021/06/06 04:38:14;;;;;;;53.13;34.67;;;14.00;99.90;;;;;;6153262;23;20017;-79
2021/06/06 04:40:41;;;;;;;55.75;35.72;;;14.00;99.90;;;;;;6160832;23;20071;-79
2021/06/06 04:43:08;;;;;;;67.00;36.42;;;14.00;99.90;;;;;;6161508;23;20009;-79
2021/06/06 04:45:34;;;;;;;60.08;35.85;;;14.10;99.90;;;;;;6148601;23;20116;-79
2021/06/06 04:48:19;;;;;;;63.58;36.72;;;14.00;99.90;;;;;;6147968;23;20021;-78
2021/06/06 04:50:46;;;;;;;64.25;36.05;;;14.10;99.90;;;;;;6183931;23;20014;-79
2021/06/06 04:53:12;;;;;;;61.83;34.85;;;14.10;99.90;;;;;;6150151;23;20017;-79
2021/06/06 04:55:38;;;;;;;59.38;33.90;;;14.10;99.90;;;;;;6148884;23;20013;-79
2021/06/06 04:58:05;;;;;;;65.13;36.60;;;14.20;99.90;;;;;;6148755;23;20430;-79
2021/06/06 05:00:33;;;;;;;67.68;36.40;;;14.20;99.90;;;;;;6162059;23;20052;-79
2021/06/06 05:03:00;;;;;;;67.25;37.05;;;14.20;99.90;;;;;;6158990;23;20103;-79
2021/06/06 05:05:25;;;;;;;57.38;34.30;;;14.20;99.90;;;;;;6183940;23;20013;-79
2021/06/06 05:07:54;;;;;;;59.67;34.63;;;14.20;99.90;;;;;;6153879;23;20017;-79
2021/06/06 05:10:21;;;;;;;53.80;34.03;;;14.30;99.90;;;;;;6164546;23;20087;-80
2021/06/06 05:12:48;;;;;;;64.93;34.28;;;14.30;99.90;;;;;;6191180;23;20394;-81
2021/06/06 05:15:14;;;;;;;56.22;33.03;;;14.30;99.90;;;;;;6157867;23;20013;-81
2021/06/06 05:17:40;;;;;;;56.50;31.75;;;14.30;99.90;;;;;;6157534;23;20036;-80
2021/06/06 05:20:08;;;;;;;58.08;31.88;;;14.40;99.90;;;;;;6167337;23;20467;-82
2021/06/06 05:22:35;;;;;;;60.38;32.80;;;14.40;99.90;;;;;;6132301;23;20017;-83
2021/06/06 05:25:01;;;;;;;65.65;33.20;;;14.40;99.90;;;;;;6193790;23;20019;-80
2021/06/06 05:27:27;;;;;;;64.10;31.85;;;14.50;99.90;;;;;;6133029;23;20048;-82
2021/06/06 05:29:53;;;;;;;68.90;32.38;;;14.40;99.90;;;;;;6194535;23;20377;-82
2021/06/06 05:32:19;;;;;;;65.53;31.05;;;14.50;99.90;;;;;;6168172;23;20032;-82
2021/06/06 05:34:45;;;;;;;67.75;31.33;;;14.40;99.90;;;;;;6157349;23;20435;-81
2021/06/06 05:37:13;;;;;;;67.63;33.45;;;14.50;99.90;;;;;;6183876;23;20023;-81
2021/06/06 05:39:39;;;;;;;67.20;34.00;;;14.40;99.90;;;;;;6158055;23;20024;-80
2021/06/06 05:42:05;;;;;;;65.88;33.28;;;14.30;99.90;;;;;;6157283;23;20393;-81
2021/06/06 05:44:31;;;;;;;73.75;33.88;;;14.30;99.90;;;;;;6157312;23;20034;-80
2021/06/06 05:46:58;;;;;;;69.53;33.05;;;14.40;99.90;;;;;;6193154;23;20492;-81
2021/06/06 05:49:24;;;;;;;68.45;33.75;;;14.30;99.90;;;;;;6157595;23;20009;-81
2021/06/06 05:51:49;;;;;;;71.55;33.35;;;14.30;99.90;;;;;;6190922;23;20036;-81
2021/06/06 05:54:15;;;;;;;70.85;33.92;;;14.40;99.90;;;;;;6131958;23;20028;-80
2021/06/06 05:56:43;;;;;;;81.35;36.30;;;14.30;99.90;;;;;;6157019;23;20086;-81
2021/06/06 05:59:09;;;;;;;87.18;36.75;;;14.30;99.90;;;;;;6158014;23;20187;-81
2021/06/06 06:01:35;;;;;;;83.53;36.75;;;14.20;99.90;;;;;;6132766;23;20112;-81
2021/06/06 06:04:01;;;;;;;77.78;35.38;;;14.20;99.90;;;;;;6157010;23;20017;-81
2021/06/06 06:06:27;;;;;;;79.47;35.83;;;14.20;99.90;;;;;;6193745;23;20059;-81
2021/06/06 06:08:54;;;;;;;80.63;34.17;;;14.20;99.90;;;;;;6143376;23;20017;-81
2021/06/06 06:11:22;;;;;;;71.85;30.67;;;14.20;99.90;;;;;;6133596;23;20013;-82
2021/06/06 06:13:50;;;;;;;85.72;34.88;;;14.10;99.90;;;;;;6132372;23;20013;-81
2021/06/06 06:16:19;;;;;;;88.10;34.67;;;14.10;99.90;;;;;;6167201;23;20438;-81
2021/06/06 06:18:45;;;;;;;73.25;31.92;;;14.10;99.90;;;;;;6132611;23;20385;-81
2021/06/06 06:21:14;;;;;;;74.05;32.10;;;14.20;99.90;;;;;;6133139;23;20024;-82
2021/06/06 06:23:40;;;;;;;70.47;31.25;;;14.20;99.90;;;;;;6184674;23;20037;-81
2021/06/06 06:26:06;;;;;;;68.25;30.35;;;14.20;99.90;;;;;;6167324;23;20017;-81
2021/06/06 06:28:52;;;;;;;72.97;29.75;;;14.10;99.90;;;;;;6140942;23;20566;-80
2021/06/06 06:31:19;;;;;;;74.82;31.70;;;14.20;99.90;;;;;;6167759;23;20117;-81
2021/06/06 06:33:46;;;;;;;70.07;29.77;;;14.20;99.90;;;;;;6157313;23;20033;-82
2021/06/06 06:36:15;;;;;;;61.00;27.35;;;14.10;99.90;;;;;;6158403;23;20079;-82
2021/06/06 06:38:41;;;;;;;65.70;28.83;;;14.20;99.90;;;;;;6132020;23;20096;-82
2021/06/06 06:41:08;;;;;;;56.28;26.30;;;14.10;99.90;;;;;;6167202;23;20041;-82
2021/06/06 06:43:34;;;;;;;63.05;25.83;;;14.10;99.90;;;;;;6166842;23;20016;-82
2021/06/06 06:46:00;;;;;;;64.68;26.85;;;14.10;99.90;;;;;;6132520;23;20013;-83
2021/06/06 06:48:28;;;;;;;61.10;24.38;;;14.10;99.90;;;;;;6183681;23;20024;-81
2021/06/06 06:50:58;;;;;;;61.28;26.30;;;14.00;99.90;;;;;;6157118;23;20021;-80
2021/06/06 06:53:24;;;;;;;49.05;22.63;;;14.10;99.90;;;;;;6131880;23;20572;-81
2021/06/06 06:55:51;;;;;;;50.22;25.10;;;14.10;99.90;;;;;;6157004;23;20017;-82
2021/06/06 06:58:17;;;;;;;62.90;27.30;;;14.00;99.90;;;;;;6192864;23;20009;-82
2021/06/06 07:00:46;;;;;;;58.92;27.23;;;14.10;99.90;;;;;;6132790;23;20024;-80
2021/06/06 07:03:16;;;;;;;60.80;29.02;;;14.10;99.90;;;;;;6156441;23;20013;-78
2021/06/06 07:05:43;;;;;;;59.30;29.65;;;14.10;99.90;;;;;;6182734;23;20024;-80
2021/06/06 07:08:12;;;;;;;71.47;31.35;;;14.20;99.90;;;;;;6180668;23;20083;-79
2021/06/06 07:10:41;;;;;;;77.95;33.83;;;14.20;99.90;;;;;;6156340;23;20013;-79
2021/06/06 07:13:08;;;;;;;78.93;34.55;;;14.30;99.90;;;;;;6166467;23;20067;-80
2021/06/06 07:15:36;;;;;;;81.88;36.35;;;14.10;99.90;;;;;;6156543;23;20005;-82
2021/06/06 07:18:09;;;;;;;80.75;36.88;;;14.20;99.90;;;;;;6156661;23;20005;-79
2021/06/06 07:20:37;;;;;;;83.47;37.53;;;14.30;99.90;;;;;;6131447;23;20116;-79
2021/06/06 07:23:06;;;;;;;79.72;36.38;;;14.20;99.90;;;;;;6160232;23;20017;-81
2021/06/06 07:25:33;;;;;;;76.32;37.00;;;14.30;99.90;;;;;;6166418;23;20021;-81
2021/06/06 07:28:00;;;;;;;64.63;32.85;;;14.30;99.90;;;;;;6156239;23;20112;-80
2021/06/06 07:30:30;;;;;;;66.72;32.55;;;14.40;99.90;;;;;;6192713;23;20017;-80
2021/06/06 07:32:59;;;;;;;61.85;32.38;;;14.30;99.90;;;;;;6166559;23;20021;-81
2021/06/06 07:35:29;;;;;;;58.85;32.80;;;14.30;99.90;;;;;;6166201;23;20067;-83
2021/06/06 07:38:15;;;;;;;57.42;31.77;;;14.30;99.90;;;;;;6159604;23;20079;-82
2021/06/06 07:40:45;;;;;;;57.80;31.42;;;14.40;99.90;;;;;;6182784;23;20009;-81
2021/06/06 07:43:12;;;;;;;57.50;32.17;;;14.30;99.90;;;;;;6192781;23;20044;-82
2021/06/06 07:45:39;;;;;;;56.05;32.70;;;14.50;99.90;;;;;;6166419;23;20017;-82
2021/06/06 07:48:06;;;;;;;44.85;26.08;;;14.40;99.90;;;;;;6165263;23;20392;-80
2021/06/06 07:50:39;;;;;;;51.70;28.90;;;14.40;99.90;;;;;;6155784;23;20454;-81
2021/06/06 07:53:10;;;;;;;54.28;29.40;;;14.30;99.90;;;;;;6159712;23;20020;-80
2021/06/06 07:55:49;;;;;;;64.32;32.50;;;14.30;99.90;;;;;;6182019;23;20013;-78
2021/06/06 07:58:22;;;;;;;54.67;31.67;;;14.30;99.90;;;;;;6192038;23;20394;-83
2021/06/06 08:00:49;;;;;;;57.50;30.88;;;14.30;99.90;;;;;;6165323;23;20013;-83
2021/06/06 08:03:15;;;;;;;55.35;32.42;;;14.20;99.90;;;;;;6131730;23;20032;-83
2021/06/06 08:05:43;;;;;;;60.55;32.47;;;14.30;99.90;;;;;;6182947;23;20013;-81
2021/06/06 08:08:12;;;;;;;49.72;29.20;;;14.40;99.90;;;;;;6182841;23;20013;-77
2021/06/06 08:10:42;;;;;;;47.97;28.83;;;14.30;99.90;;;;;;6183652;23;20083;-78
2021/06/06 08:13:08;;;;;;;42.80;26.58;;;14.40;99.90;;;;;;6166140;23;20013;-81
2021/06/06 08:15:34;;;;;;;47.60;26.42;;;14.40;99.90;;;;;;6182983;23;20028;-80
2021/06/06 08:18:05;;;;;;;45.13;25.13;;;14.40;99.90;;;;;;6184452;23;20017;-79
2021/06/06 08:20:42;;;;;;;49.35;24.52;;;14.40;99.90;;;;;;6157872;23;20377;-80
2021/06/06 08:23:09;;;;;;;35.97;20.20;;;14.30;99.90;;;;;;6157685;23;20009;-80
2021/06/06 08:25:37;;;;;;;43.00;23.65;;;14.40;99.90;;;;;;6133891;23;20326;-79
2021/06/06 08:28:05;;;;;;;42.40;22.25;;;14.40;99.90;;;;;;6195338;23;20009;-80
2021/06/06 08:30:38;;;;;;;36.42;21.25;;;14.50;99.90;;;;;;6157620;23;20021;-79
2021/06/06 08:33:06;;;;;;;37.38;20.55;;;14.30;99.90;;;;;;6135185;23;20326;-81
2021/06/06 08:35:34;;;;;;;41.35;22.15;;;14.30;99.90;;;;;;6160110;23;20028;-83
2021/06/06 08:38:01;;;;;;;37.15;20.98;;;14.40;99.90;;;;;;6195423;23;20013;-79
2021/06/06 08:40:35;;;;;;;33.50;19.92;;;14.40;99.90;;;;;;6185280;23;20021;-80
2021/06/06 08:43:03;;;;;;;42.93;20.93;;;14.40;99.90;;;;;;6168528;23;20089;-81
2021/06/06 08:45:37;;;;;;;43.40;21.27;;;14.40;99.90;;;;;;6134381;23;20009;-78
2021/06/06 08:48:06;;;;;;;41.72;20.67;;;14.50;99.90;;;;;;6183457;23;20009;-78
2021/06/06 08:50:42;;;;;;;43.30;23.77;;;14.40;99.90;;;;;;6168357;23;20016;-78
2021/06/06 08:53:13;;;;;;;38.65;21.02;;;14.50;99.90;;;;;;6131915;23;20017;-78
2021/06/06 08:55:58;;;;;;;36.75;20.35;;;14.50;99.90;;;;;;6184090;23;20016;-79
2021/06/06 08:58:39;;;;;;;34.17;19.83;;;14.40;99.90;;;;;;6132305;23;20062;-78
2021/06/06 09:01:44;;;;;;;33.67;19.85;;;14.40;99.90;;;;;;6194666;23;20009;-84
2021/06/06 09:04:25;;;;;;;27.17;16.17;;;14.50;99.90;;;;;;6063504;23;20011;-84
2021/06/06 09:07:06;;;;;;;26.70;16.88;;;14.50;99.90;;;;;;6063346;23;20921;-84
2021/06/06 09:09:37;;;;;;;32.30;17.88;;;14.60;99.90;;;;;;6067479;23;20051;-77
2021/06/06 09:12:06;;;;;;;30.50;17.65;;;14.70;99.90;;;;;;6073328;23;20019;-80
2021/06/06 09:14:32;;;;;;;25.38;14.85;;;14.60;99.90;;;;;;6066318;23;20089;-77
2021/06/06 09:17:07;;;;;;;27.45;17.42;;;14.60;99.90;;;;;;6073110;23;20087;-77
2021/06/06 09:19:51;;;;;;;27.77;16.98;;;14.90;99.90;;;;;;6039555;23;20022;-78
2021/06/06 09:22:33;;;;;;;27.07;16.13;;;14.70;99.90;;;;;;6062958;23;20018;-80
2021/06/06 09:25:12;;;;;;;23.88;14.18;;;14.50;99.90;;;;;;6063574;23;20018;-81
2021/06/06 09:27:39;;;;;;;21.27;12.20;;;14.50;99.90;;;;;;6066020;23;20162;-82
2021/06/06 09:30:18;;;;;;;18.90;11.68;;;14.60;99.90;;;;;;6074423;23;20022;-80
2021/06/06 09:32:45;;;;;;;12.15;9.50;;;14.60;99.90;;;;;;6063568;23;20025;-80
2021/06/06 09:35:35;;;;;;;16.50;10.85;;;14.70;99.90;;;;;;6048664;23;20018;-80
2021/06/06 09:38:18;;;;;;;16.63;10.23;;;14.70;99.90;;;;;;6005624;23;20027;-82
2021/06/06 09:40:49;;;;;;;15.32;9.45;;;14.80;99.90;;;;;;6109743;23;20021;-85
2021/06/06 09:43:29;;;;;;;12.50;9.40;;;14.80;99.90;;;;;;6100215;23;20040;-82
2021/06/06 09:46:17;;;;;;;10.90;8.32;;;14.70;99.90;;;;;;6108264;23;20273;-83
2021/06/06 09:48:45;;;;;;;12.75;7.95;;;14.70;99.90;;;;;;6097757;23;20010;-81
2021/06/06 09:51:26;;;;;;;9.82;7.05;;;14.70;99.90;;;;;;6107513;23;20443;-81
2021/06/06 09:53:57;;;;;;;11.55;6.45;;;14.70;99.90;;;;;;6096350;23;20091;-80
2021/06/06 09:56:28;;;;;;;6.82;5.28;;;14.60;99.90;;;;;;6121958;23;20017;-76
2021/06/06 09:59:09;;;;;;;6.00;5.40;;;14.80;99.90;;;;;;6121453;23;20022;-78
2021/06/06 10:01:37;;;;;;;5.40;4.88;;;15.00;99.90;;;;;;6122032;23;20036;-81
2021/06/06 10:04:05;;;;;;;4.65;4.05;;;15.10;99.90;;;;;;6096934;23;20018;-80
2021/06/06 10:06:35;;;;;;;5.50;4.60;;;15.10;99.90;;;;;;6105601;23;20018;-79
2021/06/06 10:09:19;;;;;;;7.97;4.43;;;15.10;99.90;;;;;;6097559;23;20026;-80
2021/06/06 10:11:52;;;;;;;4.47;4.07;;;15.00;99.90;;;;;;6120936;23;20021;-82
2021/06/06 10:14:45;;;;;;;4.63;4.05;;;15.10;99.90;;;;;;6108085;23;20024;-81
2021/06/06 10:17:15;;;;;;;5.60;3.90;;;15.10;99.90;;;;;;6150948;23;20075;-82
2021/06/06 10:20:16;;;;;;;5.78;4.25;;;15.00;99.90;;;;;;6183142;23;20023;-83
2021/06/06 10:22:49;;;;;;;4.15;3.70;;;15.00;99.90;;;;;;6190002;23;20046;-80
2021/06/06 10:25:35;;;;;;;3.00;2.70;;;14.90;99.90;;;;;;6156142;23;20013;-80
2021/06/06 10:28:06;;;;;;;3.83;3.45;;;15.30;99.90;;;;;;6132364;23;20067;-81
2021/06/06 10:30:32;;;;;;;5.55;3.63;;;15.30;99.90;;;;;;6156690;23;20024;-80
2021/06/06 10:33:15;;;;;;;6.32;4.15;;;15.00;99.90;;;;;;6156418;23;20346;-81
2021/06/06 10:35:41;;;;;;;4.65;4.20;;;15.00;99.90;;;;;;6193388;23;20374;-81
2021/06/06 10:38:07;;;;;;;5.75;4.40;;;14.90;99.90;;;;;;6182783;23;20036;-81
2021/06/06 10:40:45;;;;;;;5.68;5.07;;;14.80;99.90;;;;;;6193059;23;20013;-80
2021/06/06 10:43:13;;;;;;;7.13;5.20;;;15.00;99.90;;;;;;6156251;23;20475;-81
2021/06/06 10:45:50;;;;;;;7.32;5.35;;;14.90;99.90;;;;;;6132476;23;20040;-81
2021/06/06 10:48:44;;;;;;;6.65;5.10;;;14.80;99.90;;;;;;6167759;23;20083;-80
2021/06/06 10:51:21;;;;;;;8.70;5.00;;;14.70;99.90;;;;;;6156949;23;20482;-80
2021/06/06 10:53:56;;;;;;;8.23;4.90;;;14.80;99.90;;;;;;6132570;23;20013;-81
2021/06/06 10:56:33;;;;;;;;;;;14.80;99.90;;;;;;6182801;23;20024;-82
2021/06/06 10:59:07;;;;;;;6.35;4.40;;;14.80;99.90;;;;;;6156428;23;20002;-83
2021/06/06 11:01:42;;;;;;;8.10;3.85;;;14.80;99.90;;;;;;6192230;23;20009;-79
2021/06/06 11:04:18;;;;;;;7.75;4.60;;;14.90;99.90;;;;;;6185582;23;20016;-81
2021/06/06 11:07:00;;;;;;;5.88;4.72;;;14.90;99.90;;;;;;6156627;23;20023;-83
2021/06/06 11:09:31;;;;;;;5.55;4.93;;;14.90;99.90;;;;;;6183952;23;20025;-79
2021/06/06 11:12:05;;;;;;;6.15;5.50;;;14.80;99.90;;;;;;6155215;23;20067;-83
2021/06/06 11:14:40;;;;;;;7.32;5.60;;;14.80;99.90;;;;;;6166025;23;20080;-83
2021/06/06 11:17:10;;;;;;;8.45;6.13;;;14.80;99.90;;;;;;6165092;23;20040;-83
2021/06/06 11:19:36;;;;;;;7.90;6.22;;;14.60;99.90;;;;;;6180822;23;20028;-83
2021/06/06 11:22:04;;;;;;;9.60;6.88;;;14.70;99.90;;;;;;6165569;23;20009;-84
2021/06/06 11:24:39;;;;;;;8.25;6.72;;;14.70;99.90;;;;;;6157149;23;20017;-84
2021/06/06 11:27:11;;;;;;;;;;;14.70;99.90;;;;;;6157434;23;20005;-81
2021/06/06 11:29:57;;;;;;;10.27;6.32;;;14.70;99.90;;;;;;6168558;23;19970;-83
2021/06/06 11:32:34;;;;;;;11.30;7.45;;;14.70;99.90;;;;;;6159431;23;20041;-82
2021/06/06 11:35:23;;;;;;;20.75;14.18;;;14.70;99.90;;;;;;6159376;23;20339;-84
2021/06/06 11:41:35;;;;;;;10.75;7.78;;;14.70;99.90;;;;;;6186792;23;20369;-84
2021/06/06 11:44:33;;;;;;;11.73;8.00;;;14.70;99.90;;;;;;6196898;23;20028;-83
2021/06/06 11:47:06;;;;;;;10.48;7.03;;;14.80;99.90;;;;;;6185401;23;20017;-83
2021/06/06 11:49:49;;;;;;;11.82;8.00;;;14.80;99.90;;;;;;6133900;23;20072;-84
2021/06/06 11:52:41;;;;;;;12.73;8.60;;;14.80;99.90;;;;;;6168850;23;20017;-84
2021/06/06 11:55:17;;;;;;;16.65;9.02;;;14.70;99.90;;;;;;6134559;23;20009;-83
2021/06/06 11:57:50;;;;;;;13.93;8.77;;;14.70;99.90;;;;;;6159061;23;20077;-84
2021/06/06 12:00:25;;;;;;;16.98;8.77;;;14.60;99.90;;;;;;6159301;23;20119;-84
2021/06/06 12:02:53;;;;;;;17.55;8.50;;;14.60;99.90;;;;;;6158958;23;20337;-84
2021/06/06 12:05:24;;;;;;;14.43;8.20;;;14.60;99.90;;;;;;6194046;23;20009;-84
2021/06/06 12:07:50;;;;;;;20.30;10.07;;;14.50;99.90;;;;;;6158668;23;20446;-83
2021/06/06 12:10:32;;;;;;;20.88;10.48;;;14.50;99.90;;;;;;6154099;23;20026;-84
2021/06/06 12:13:02;;;;;;;16.65;10.32;;;14.50;99.90;;;;;;6164318;23;20021;-84
2021/06/06 12:15:38;;;;;;;20.08;10.30;;;14.60;99.90;;;;;;6179142;23;20009;-86
2021/06/06 12:18:16;;;;;;;33.10;21.25;;;14.60;99.90;;;;;;6154155;23;20312;-85
2021/06/06 12:20:56;;;;;;;19.70;12.80;;;14.50;99.90;;;;;;6163790;23;20021;-84
2021/06/06 12:23:31;;;;;;;21.95;11.20;;;14.60;99.90;;;;;;6184949;23;20017;-83
2021/06/06 12:26:08;;;;;;;22.25;11.70;;;14.60;99.90;;;;;;6178297;23;20020;-85
2021/06/06 12:28:39;;;;;;;18.52;11.20;;;14.50;99.90;;;;;;6153562;23;20009;-84
2021/06/06 12:31:07;;;;;;;21.67;11.65;;;14.60;99.90;;;;;;6188501;23;20009;-84
2021/06/06 12:33:37;;;;;;;18.83;11.38;;;14.60;99.90;;;;;;6188361;23;20020;-84
2021/06/06 12:36:27;;;;;;;21.27;11.93;;;14.70;99.90;;;;;;6178746;23;20021;-84
2021/06/06 12:38:57;;;;;;;26.52;11.23;;;14.70;99.90;;;;;;6178106;23;20068;-83
2021/06/06 12:41:22;;;;;;;22.70;12.45;;;14.70;99.90;;;;;;6155584;23;20009;-84
2021/06/06 12:43:51;;;;;;;22.67;12.25;;;14.70;99.90;;;;;;6188913;23;20548;-81
2021/06/06 12:46:19;;;;;;;27.95;13.38;;;14.60;99.90;;;;;;6177214;23;20100;-85
2021/06/06 12:49:06;;;;;;;27.80;13.98;;;14.70;99.90;;;;;;6189459;23;20080;-84
2021/06/06 12:51:40;;;;;;;31.60;13.70;;;14.90;99.90;;;;;;6154134;23;20047;-82
2021/06/06 12:54:31;;;;;;;24.50;13.27;;;14.90;99.90;;;;;;6153476;23;20477;-82
2021/06/06 12:57:21;;;;;;;35.63;14.60;;;14.90;99.90;;;;;;6187850;23;20013;-81